CSAPA EDKV-EDDK
Flight info
| Callsign | CSAPA |
|---|---|
| Flight time | 0h 35m |
| Altitude | 2500 |
| Route | EDKV DCT BBREI RHEIN SIERRA1 SROUTE SIERRA2 EDDK |
| Aircraft | C152/L-V/N |
Departure
| Time | 2026-05-04 18:15 |
|---|---|
| Airport | Dahlemer Binz Airfield (EDKV) |
Arrival
| Time | 2026-05-04 18:51 |
|---|---|
| Airport | Cologne Bonn Airport (EDDK) |
| Time | Latitude | Longitude | Altitude | Speed | Heading |
|---|---|---|---|---|---|
| 2026-05-04 18:11 | 50.40401 | 6.52792 | 1899 ft | 0 kts | 324° |
| 2026-05-04 18:12 | 50.40401 | 6.52791 | 1899 ft | 0 kts | 324° |
| 2026-05-04 18:12 | 50.40416 | 6.52774 | 1899 ft | 6 kts | 314° |
| 2026-05-04 18:13 | 50.40406 | 6.52712 | 1899 ft | 9 kts | 235° |
| 2026-05-04 18:13 | 50.40370 | 6.52630 | 1899 ft | 10 kts | 235° |
| 2026-05-04 18:13 | 50.40411 | 6.52552 | 1899 ft | 0 kts | 55° |
| 2026-05-04 18:14 | 50.40470 | 6.52686 | 1899 ft | 41 kts | 55° |
| 2026-05-04 18:14 | 50.40709 | 6.53247 | 1939 ft | 73 kts | 58° |
| 2026-05-04 18:15 | 50.41170 | 6.54592 | 2313 ft | 75 kts | 62° |
| 2026-05-04 18:15 | 50.41805 | 6.56073 | 2638 ft | 82 kts | 51° |
| 2026-05-04 18:15 | 50.42185 | 6.56770 | 2673 ft | 89 kts | 48° |
| 2026-05-04 18:16 | 50.42620 | 6.57511 | 2585 ft | 95 kts | 47° |
| 2026-05-04 18:16 | 50.43074 | 6.58284 | 2529 ft | 101 kts | 47° |
| 2026-05-04 18:16 | 50.43554 | 6.59089 | 2515 ft | 101 kts | 46° |
| 2026-05-04 18:17 | 50.44545 | 6.60696 | 2512 ft | 101 kts | 45° |
| 2026-05-04 18:17 | 50.45050 | 6.61477 | 2504 ft | 103 kts | 44° |
| 2026-05-04 18:17 | 50.46090 | 6.62993 | 2511 ft | 102 kts | 41° |
| 2026-05-04 18:18 | 50.46629 | 6.63726 | 2514 ft | 102 kts | 40° |
| 2026-05-04 18:18 | 50.47176 | 6.64437 | 2516 ft | 102 kts | 39° |
| 2026-05-04 18:18 | 50.47735 | 6.65127 | 2517 ft | 102 kts | 37° |
| 2026-05-04 18:18 | 50.48298 | 6.65785 | 2519 ft | 102 kts | 36° |
| 2026-05-04 18:19 | 50.49422 | 6.67182 | 2499 ft | 104 kts | 47° |
| 2026-05-04 18:19 | 50.49854 | 6.68065 | 2503 ft | 103 kts | 57° |
| 2026-05-04 18:19 | 50.50197 | 6.69047 | 2499 ft | 103 kts | 65° |
| 2026-05-04 18:20 | 50.50453 | 6.70098 | 2492 ft | 103 kts | 74° |
| 2026-05-04 18:20 | 50.50584 | 6.71204 | 2487 ft | 103 kts | 84° |
| 2026-05-04 18:20 | 50.50605 | 6.72329 | 2488 ft | 103 kts | 92° |
| 2026-05-04 18:20 | 50.50567 | 6.73447 | 2490 ft | 102 kts | 92° |
| 2026-05-04 18:21 | 50.50557 | 6.74562 | 2495 ft | 102 kts | 90° |
| 2026-05-04 18:21 | 50.50572 | 6.75679 | 2493 ft | 102 kts | 88° |
| 2026-05-04 18:21 | 50.50609 | 6.76797 | 2496 ft | 102 kts | 86° |
| 2026-05-04 18:21 | 50.50665 | 6.77913 | 2495 ft | 102 kts | 84° |
| 2026-05-04 18:22 | 50.50746 | 6.79024 | 2497 ft | 102 kts | 83° |
| 2026-05-04 18:22 | 50.50843 | 6.80132 | 2496 ft | 102 kts | 81° |
| 2026-05-04 18:22 | 50.50957 | 6.81236 | 2497 ft | 102 kts | 80° |
| 2026-05-04 18:22 | 50.51088 | 6.82339 | 2497 ft | 102 kts | 79° |
| 2026-05-04 18:23 | 50.51232 | 6.83435 | 2496 ft | 103 kts | 78° |
| 2026-05-04 18:23 | 50.51386 | 6.84531 | 2497 ft | 102 kts | 77° |
| 2026-05-04 18:23 | 50.51552 | 6.85616 | 2496 ft | 103 kts | 76° |
| 2026-05-04 18:23 | 50.51733 | 6.86705 | 2496 ft | 103 kts | 75° |
| 2026-05-04 18:24 | 50.51925 | 6.87769 | 2495 ft | 103 kts | 73° |
| 2026-05-04 18:24 | 50.52138 | 6.88853 | 2495 ft | 103 kts | 72° |
| 2026-05-04 18:24 | 50.52365 | 6.89914 | 2494 ft | 103 kts | 71° |
| 2026-05-04 18:24 | 50.52609 | 6.90970 | 2492 ft | 103 kts | 69° |
| 2026-05-04 18:25 | 50.52869 | 6.92014 | 2491 ft | 103 kts | 68° |
| 2026-05-04 18:25 | 50.53105 | 6.93064 | 2478 ft | 103 kts | 74° |
| 2026-05-04 18:25 | 50.53289 | 6.94150 | 2483 ft | 102 kts | 76° |
| 2026-05-04 18:25 | 50.53459 | 6.95237 | 2479 ft | 103 kts | 76° |
| 2026-05-04 18:26 | 50.53624 | 6.96332 | 2477 ft | 103 kts | 77° |
| 2026-05-04 18:26 | 50.53787 | 6.97427 | 2476 ft | 103 kts | 77° |
| 2026-05-04 18:26 | 50.53948 | 6.98520 | 2472 ft | 103 kts | 79° |
| 2026-05-04 18:26 | 50.53995 | 6.99655 | 2446 ft | 104 kts | 90° |
| 2026-05-04 18:27 | 50.53998 | 7.00781 | 2470 ft | 102 kts | 90° |
| 2026-05-04 18:27 | 50.53931 | 7.01901 | 2446 ft | 104 kts | 99° |
| 2026-05-04 18:27 | 50.53784 | 7.03005 | 2454 ft | 102 kts | 103° |
| 2026-05-04 18:27 | 50.53614 | 7.04092 | 2447 ft | 103 kts | 104° |
| 2026-05-04 18:28 | 50.53428 | 7.05180 | 2446 ft | 103 kts | 105° |
| 2026-05-04 18:28 | 50.53235 | 7.06266 | 2444 ft | 103 kts | 105° |
| 2026-05-04 18:28 | 50.53042 | 7.07333 | 2442 ft | 103 kts | 105° |
| 2026-05-04 18:28 | 50.52848 | 7.08417 | 2440 ft | 103 kts | 105° |
| 2026-05-04 18:29 | 50.52662 | 7.09494 | 2449 ft | 102 kts | 104° |
| 2026-05-04 18:29 | 50.52528 | 7.10588 | 2447 ft | 103 kts | 94° |
| 2026-05-04 18:29 | 50.52523 | 7.11710 | 2449 ft | 102 kts | 88° |
| 2026-05-04 18:29 | 50.52557 | 7.12828 | 2451 ft | 102 kts | 86° |
| 2026-05-04 18:30 | 50.52710 | 7.15053 | 2452 ft | 102 kts | 82° |
| 2026-05-04 18:30 | 50.52828 | 7.16160 | 2451 ft | 102 kts | 79° |
| 2026-05-04 18:30 | 50.52971 | 7.17256 | 2449 ft | 102 kts | 77° |
| 2026-05-04 18:31 | 50.53137 | 7.18345 | 2447 ft | 102 kts | 75° |
| 2026-05-04 18:31 | 50.53322 | 7.19427 | 2446 ft | 102 kts | 74° |
| 2026-05-04 18:31 | 50.53504 | 7.20512 | 2445 ft | 102 kts | 75° |
| 2026-05-04 18:31 | 50.53684 | 7.21597 | 2439 ft | 103 kts | 76° |
| 2026-05-04 18:32 | 50.53866 | 7.22683 | 2442 ft | 102 kts | 75° |
| 2026-05-04 18:32 | 50.54060 | 7.23748 | 2437 ft | 103 kts | 73° |
| 2026-05-04 18:32 | 50.54273 | 7.24817 | 2437 ft | 103 kts | 72° |
| 2026-05-04 18:32 | 50.54526 | 7.25866 | 2443 ft | 102 kts | 63° |
| 2026-05-04 18:33 | 50.54786 | 7.26484 | 2439 ft | 103 kts | 50° |
| 2026-05-04 18:33 | 50.55356 | 7.27160 | 2423 ft | 104 kts | 24° |
| 2026-05-04 18:33 | 50.56053 | 7.27391 | 2441 ft | 101 kts | 0° |
| 2026-05-04 18:33 | 50.56740 | 7.27187 | 2447 ft | 102 kts | 339° |
| 2026-05-04 18:34 | 50.57380 | 7.26692 | 2436 ft | 103 kts | 332° |
| 2026-05-04 18:34 | 50.58001 | 7.26141 | 2440 ft | 103 kts | 329° |
| 2026-05-04 18:34 | 50.58617 | 7.25567 | 2435 ft | 103 kts | 329° |
| 2026-05-04 18:34 | 50.59236 | 7.25002 | 2439 ft | 102 kts | 330° |
| 2026-05-04 18:35 | 50.59853 | 7.24442 | 2440 ft | 103 kts | 330° |
| 2026-05-04 18:35 | 50.60473 | 7.23881 | 2442 ft | 102 kts | 330° |
| 2026-05-04 18:35 | 50.61093 | 7.23328 | 2444 ft | 102 kts | 330° |
| 2026-05-04 18:35 | 50.61715 | 7.22783 | 2449 ft | 102 kts | 331° |
| 2026-05-04 18:36 | 50.62342 | 7.22250 | 2445 ft | 103 kts | 332° |
| 2026-05-04 18:36 | 50.62962 | 7.21729 | 2464 ft | 101 kts | 332° |
| 2026-05-04 18:36 | 50.63585 | 7.21205 | 2460 ft | 103 kts | 332° |
| 2026-05-04 18:36 | 50.64218 | 7.20664 | 2452 ft | 103 kts | 331° |
| 2026-05-04 18:37 | 50.64839 | 7.20122 | 2462 ft | 102 kts | 331° |
| 2026-05-04 18:37 | 50.65468 | 7.19586 | 2453 ft | 103 kts | 332° |
| 2026-05-04 18:37 | 50.66102 | 7.19071 | 2459 ft | 102 kts | 333° |
| 2026-05-04 18:37 | 50.66741 | 7.18566 | 2454 ft | 103 kts | 333° |
| 2026-05-04 18:38 | 50.67380 | 7.18064 | 2453 ft | 103 kts | 333° |
| 2026-05-04 18:38 | 50.68021 | 7.17559 | 2451 ft | 103 kts | 333° |
| 2026-05-04 18:38 | 50.68656 | 7.17045 | 2452 ft | 103 kts | 332° |
| 2026-05-04 18:38 | 50.69279 | 7.16502 | 2452 ft | 103 kts | 329° |
| 2026-05-04 18:39 | 50.69884 | 7.15903 | 2453 ft | 103 kts | 327° |
| 2026-05-04 18:39 | 50.70477 | 7.15277 | 2451 ft | 103 kts | 325° |
| 2026-05-04 18:39 | 50.71054 | 7.14635 | 2452 ft | 103 kts | 324° |
| 2026-05-04 18:39 | 50.71627 | 7.13962 | 2452 ft | 103 kts | 322° |
| 2026-05-04 18:40 | 50.72190 | 7.13264 | 2452 ft | 103 kts | 321° |
| 2026-05-04 18:40 | 50.72742 | 7.12542 | 2452 ft | 103 kts | 320° |
| 2026-05-04 18:40 | 50.73281 | 7.11798 | 2451 ft | 103 kts | 318° |
| 2026-05-04 18:40 | 50.73806 | 7.11034 | 2451 ft | 103 kts | 316° |
| 2026-05-04 18:41 | 50.74313 | 7.10248 | 2445 ft | 102 kts | 314° |
| 2026-05-04 18:41 | 50.74820 | 7.09449 | 2391 ft | 104 kts | 317° |
| 2026-05-04 18:41 | 50.75361 | 7.08712 | 2374 ft | 101 kts | 319° |
| 2026-05-04 18:41 | 50.75883 | 7.07980 | 2304 ft | 103 kts | 317° |
| 2026-05-04 18:42 | 50.76401 | 7.07221 | 2200 ft | 101 kts | 317° |
| 2026-05-04 18:42 | 50.76915 | 7.06446 | 2037 ft | 103 kts | 316° |
| 2026-05-04 18:42 | 50.77470 | 7.05744 | 1896 ft | 102 kts | 330° |
| 2026-05-04 18:42 | 50.78148 | 7.05416 | 1767 ft | 102 kts | 359° |
| 2026-05-04 18:43 | 50.78804 | 7.05743 | 1679 ft | 100 kts | 30° |
| 2026-05-04 18:43 | 50.79379 | 7.06305 | 1682 ft | 95 kts | 33° |
| 2026-05-04 18:43 | 50.79946 | 7.06857 | 1646 ft | 97 kts | 30° |
| 2026-05-04 18:43 | 50.80522 | 7.07381 | 1650 ft | 94 kts | 30° |
| 2026-05-04 18:44 | 50.81089 | 7.07905 | 1634 ft | 95 kts | 30° |
| 2026-05-04 18:44 | 50.81463 | 7.08258 | 1625 ft | 95 kts | 31° |
| 2026-05-04 18:44 | 50.82217 | 7.08973 | 1601 ft | 95 kts | 31° |
| 2026-05-04 18:44 | 50.82782 | 7.09505 | 1588 ft | 94 kts | 31° |
| 2026-05-04 18:45 | 50.83336 | 7.10065 | 1569 ft | 95 kts | 35° |
| 2026-05-04 18:45 | 50.83837 | 7.10752 | 1531 ft | 97 kts | 49° |
| 2026-05-04 18:45 | 50.84206 | 7.11629 | 1519 ft | 95 kts | 63° |
| 2026-05-04 18:45 | 50.84455 | 7.12598 | 1503 ft | 95 kts | 70° |
| 2026-05-04 18:46 | 50.84642 | 7.13593 | 1497 ft | 94 kts | 75° |
| 2026-05-04 18:46 | 50.84818 | 7.14599 | 1476 ft | 95 kts | 74° |
| 2026-05-04 18:46 | 50.85021 | 7.15591 | 1470 ft | 94 kts | 67° |
| 2026-05-04 18:46 | 50.85334 | 7.16503 | 1457 ft | 95 kts | 55° |
| 2026-05-04 18:47 | 50.85697 | 7.17378 | 1444 ft | 96 kts | 59° |
| 2026-05-04 18:47 | 50.86041 | 7.18270 | 1459 ft | 94 kts | 59° |
| 2026-05-04 18:47 | 50.86190 | 7.19239 | 1475 ft | 93 kts | 98° |
| 2026-05-04 18:47 | 50.85849 | 7.20088 | 1469 ft | 94 kts | 145° |
| 2026-05-04 18:48 | 50.85224 | 7.20287 | 1480 ft | 93 kts | 191° |
| 2026-05-04 18:48 | 50.84711 | 7.19702 | 1479 ft | 94 kts | 239° |
| 2026-05-04 18:48 | 50.84651 | 7.18721 | 1501 ft | 93 kts | 292° |
| 2026-05-04 18:48 | 50.85182 | 7.18223 | 1461 ft | 96 kts | 4° |
| 2026-05-04 18:49 | 50.85726 | 7.18774 | 1407 ft | 97 kts | 50° |
| 2026-05-04 18:49 | 50.86234 | 7.19434 | 1345 ft | 93 kts | 21° |
| 2026-05-04 18:49 | 50.86876 | 7.19480 | 1212 ft | 93 kts | 346° |
| 2026-05-04 18:49 | 50.87422 | 7.19002 | 1114 ft | 91 kts | 315° |
| 2026-05-04 18:50 | 50.87660 | 7.18105 | 986 ft | 90 kts | 274° |
| 2026-05-04 18:50 | 50.87504 | 7.17162 | 787 ft | 91 kts | 240° |
| 2026-05-04 18:50 | 50.87195 | 7.16297 | 600 ft | 89 kts | 245° |
| 2026-05-04 18:50 | 50.86937 | 7.15436 | 391 ft | 84 kts | 244° |
| 2026-05-04 18:51 | 50.86711 | 7.14707 | 317 ft | 67 kts | 244° |
| 2026-05-04 18:51 | 50.86548 | 7.14159 | 305 ft | 45 kts | 245° |
| 2026-05-04 18:51 | 50.86438 | 7.13792 | 305 ft | 30 kts | 244° |
| 2026-05-04 18:51 | 50.86374 | 7.13580 | 305 ft | 12 kts | 244° |
| 2026-05-04 18:52 | 50.86368 | 7.13462 | 305 ft | 9 kts | 315° |
| 2026-05-04 18:52 | 50.86422 | 7.13380 | 305 ft | 12 kts | 316° |
| 2026-05-04 18:52 | 50.86486 | 7.13283 | 305 ft | 14 kts | 316° |
| 2026-05-04 18:52 | 50.86558 | 7.13173 | 305 ft | 15 kts | 316° |
| 2026-05-04 18:53 | 50.86637 | 7.13056 | 305 ft | 16 kts | 317° |
| 2026-05-04 18:53 | 50.86719 | 7.12935 | 305 ft | 16 kts | 317° |
| 2026-05-04 18:53 | 50.86803 | 7.12811 | 305 ft | 17 kts | 316° |
| 2026-05-04 18:53 | 50.86871 | 7.12708 | 305 ft | 11 kts | 316° |
| 2026-05-04 18:54 | 50.86923 | 7.12628 | 305 ft | 10 kts | 316° |
| 2026-05-04 18:54 | 50.86975 | 7.12549 | 305 ft | 12 kts | 316° |
| 2026-05-04 18:54 | 50.87041 | 7.12450 | 305 ft | 14 kts | 316° |
| 2026-05-04 18:54 | 50.87111 | 7.12342 | 305 ft | 15 kts | 316° |
| 2026-05-04 18:55 | 50.87167 | 7.12334 | 305 ft | 6 kts | 48° |
| 2026-05-04 18:55 | 50.87222 | 7.12430 | 305 ft | 11 kts | 47° |
| 2026-05-04 18:55 | 50.87270 | 7.12511 | 305 ft | 8 kts | 31° |
| 2026-05-04 18:56 | 50.87313 | 7.12477 | 305 ft | 9 kts | 314° |
| 2026-05-04 18:56 | 50.87303 | 7.12421 | 305 ft | 2 kts | 226° |
| 2026-05-04 18:56 | 50.87272 | 7.12370 | 305 ft | 10 kts | 227° |
| 2026-05-04 18:56 | 50.87227 | 7.12341 | 305 ft | 7 kts | 146° |
| 2026-05-04 18:57 | 50.87209 | 7.12366 | 305 ft | 5 kts | 137° |
| 2026-05-04 18:57 | 50.87200 | 7.12379 | 305 ft | 0 kts | 137° |